Thunder radar more information blitzortung!


Löydät sääaseman tiedot myös:

European Weather Network

Finland Weather Exchange

Weather Underground

AWEKAS



Weather Underground säähistoriasivu

Päivittäin yhteenveto Kesäkuu 3, 2017 Yksiköt:  Metriset    Englantilaiset   Molemmat
« Edellinen Päivä
Seuraava Päivä »
Päivittäin Viikoittain Kuukausittain Vuosittain Mukautettu
  Korkea: Matala: Keskiarvo:
Lämpötila: -17.8 °C -16.4 °C -13.4 °C
Kastepiste: -17.8 °C -19.7 °C -18.1 °C
Kosteus: Humidity % 34 % 57 %
Tuulen nopeus: 0 km/h 0 km/h 3.1 km/h
Tuulenpuuska: 0 km/h - -
Tuuli:- - WNW
Ilmanpaine: 0 hPa 34293.4 hPa -
Sade: 0 mm    
Historical Graphs
 
 
Taulukkotiedot Kesäkuu 3, 2017
Aika Lämpötila Kastepiste Ilmanpaine Tuuli Tuulen nopeus Tuulenpuuska Kosteus Sademäärä (tunneittain)
-17.8 °C -17.8 °C 0 hPa Calm     Humidity % 0 mm
00:00 -15.1 °C -17.9 °C 34361.1 hPa Calm   7.7 km/h 69 % 0 mm
00:15 -15.3 °C -18.1 °C 34361.1 hPa Calm   2.6 km/h 70 % 0 mm
00:30 -15.7 °C -18.1 °C 34361.1 hPa NNE 2.6 km/h 7.7 km/h 73 % 0 mm
00:45 -15.9 °C -18.2 °C 34371.3 hPa Calm   2.6 km/h 74 % 0 mm
01:00 -16.2 °C -18.3 °C 34371.3 hPa Calm     76 % 0 mm
01:15 -16.3 °C -18.3 °C 34371.3 hPa Calm   10.3 km/h 77 % 0 mm
01:30 -16.3 °C -18.2 °C 34384.8 hPa Calm   7.7 km/h 78 % 0 mm
01:45 -16.4 °C -18.2 °C 34384.8 hPa Calm   5.1 km/h 79 % 0 mm
02:00 -16.3 °C -18.1 °C 34384.8 hPa WNW 2.6 km/h 12.9 km/h 79 % 0 mm
02:15 -16 °C -17.8 °C 34384.8 hPa NW 5.1 km/h 12.9 km/h 79 % 0 mm
02:30 -15.8 °C -17.7 °C 34371.3 hPa NW 2.6 km/h 12.9 km/h 78 % 0 mm
02:45 -15.8 °C -17.7 °C 34384.8 hPa NW 2.6 km/h 15.6 km/h 78 % 0 mm
03:00 -15.7 °C -17.6 °C 34384.8 hPa NW 10.3 km/h 20.8 km/h 78 % 0 mm
03:15 -15.7 °C -17.6 °C 34384.8 hPa NW 7.7 km/h 18.2 km/h 78 % 0 mm
03:30 -15.7 °C -17.5 °C 34384.8 hPa NW 5.1 km/h 12.9 km/h 79 % 0 mm
03:45 -15.6 °C -17.4 °C 34384.8 hPa NW 10.3 km/h 15.6 km/h 79 % 0 mm
04:00 -15.6 °C -17.4 °C 34384.8 hPa NW 5.1 km/h 15.6 km/h 79 % 0 mm
04:15 -15.6 °C -17.3 °C 34384.8 hPa NW 5.1 km/h 12.9 km/h 80 % 0 mm
04:30 -15.7 °C -17.4 °C 34384.8 hPa NW 2.6 km/h 12.9 km/h 80 % 0 mm
04:45 -15.8 °C -17.5 °C 34395 hPa NW 5.1 km/h 12.9 km/h 81 % 0 mm
05:00 -15.9 °C -17.4 °C 34395 hPa NW 5.1 km/h 12.9 km/h 82 % 0 mm
05:15 -15.9 °C -17.4 °C 34395 hPa NW 5.1 km/h 10.3 km/h 82 % 0 mm
05:30 -15.8 °C -17.3 °C 34395 hPa NW 2.6 km/h 12.9 km/h 82 % 0 mm
05:45 -15.6 °C -17.3 °C 34395 hPa NW 2.6 km/h 10.3 km/h 81 % 0 mm
06:00 -15.4 °C -17.3 °C 34395 hPa NW 5.1 km/h 12.9 km/h 79 % 0 mm
06:15 -15.3 °C -17.3 °C 34395 hPa NNW 2.6 km/h 12.9 km/h 78 % 0 mm
06:30 -15.2 °C -17.3 °C 34395 hPa NW 5.1 km/h 15.6 km/h 77 % 0 mm
06:45 -15.1 °C -17.4 °C 34395 hPa NNW 5.1 km/h 18.2 km/h 75 % 0 mm
07:00 -15.1 °C -17.4 °C 34395 hPa North 2.6 km/h 12.9 km/h 74 % 0 mm
07:15 -14.9 °C -17.3 °C 34395 hPa North 2.6 km/h 15.6 km/h 74 % 0 mm
07:30 -14.9 °C -17.5 °C 34395 hPa NNE 2.6 km/h 12.9 km/h 72 % 0 mm
07:45 -14.8 °C -17.5 °C 34395 hPa North 2.6 km/h 12.9 km/h 71 % 0 mm
08:00 -14.7 °C -17.7 °C 34395 hPa NNW 5.1 km/h 12.9 km/h 68 % 0 mm
08:15 -14.6 °C -17.8 °C 34395 hPa North 2.6 km/h 18.2 km/h 66 % 0 mm
08:30 -14.6 °C -17.7 °C 34395 hPa NW 2.6 km/h 10.3 km/h 67 % 0 mm
08:45 -14.1 °C -17.6 °C 34395 hPa NW 7.7 km/h 20.8 km/h 64 % 0 mm
09:00 -13.6 °C -17.4 °C 34395 hPa NNW 5.1 km/h 15.6 km/h 62 % 0 mm
09:15 -13.8 °C -17.8 °C 34395 hPa North 5.1 km/h 15.6 km/h 60 % 0 mm
09:30 -13.8 °C -18 °C 34395 hPa NNW 10.3 km/h 33.6 km/h 59 % 0 mm
09:45 -13.6 °C -17.9 °C 34395 hPa NNW 7.7 km/h 23.3 km/h 58 % 0 mm
10:15 -13.2 °C -18.1 °C 34395 hPa NNE 7.7 km/h 18.2 km/h 54 % 0 mm
10:30 -13.1 °C -17.9 °C 34395 hPa NNW 10.3 km/h 25.9 km/h 54 % 0 mm
10:45 -12.9 °C -17.3 °C 34384.8 hPa NNE 5.1 km/h 15.6 km/h 57 % 0 mm
11:00 -12.6 °C -17.6 °C 34384.8 hPa NW 7.7 km/h 23.3 km/h 54 % 0 mm
11:15 -12.7 °C -18.1 °C 34384.8 hPa NNW 7.7 km/h 28.5 km/h 51 % 0 mm
11:30 -12.6 °C -17.6 °C 34371.3 hPa NNW 10.3 km/h 20.8 km/h 53 % 0 mm
11:45 -12.5 °C -17.8 °C 34371.3 hPa NW 12.9 km/h 33.6 km/h 51 % 0 mm
12:00 -12.4 °C -17.6 °C 34371.3 hPa NNW 10.3 km/h 31.1 km/h 52 % 0 mm
12:15 -12.4 °C -17.9 °C 34371.3 hPa NW 12.9 km/h 36.2 km/h 50 % 0 mm
12:30 -12.2 °C -18.1 °C 34371.3 hPa NW 10.3 km/h 31.1 km/h 48 % 0 mm
12:45 -12.3 °C -17.8 °C 34371.3 hPa NW 12.9 km/h 33.6 km/h 50 % 0 mm
13:00 -12 °C -17.4 °C 34361.1 hPa NNW 10.3 km/h 28.5 km/h 51 % 0 mm
13:15 -11.7 °C -18.3 °C 34361.1 hPa NNW 7.7 km/h 23.3 km/h 44 % 0 mm
13:30 -11.6 °C -18.1 °C 34361.1 hPa Calm     44 % 0 mm
13:45 -11.5 °C -18.3 °C 34361.1 hPa Calm     43 % 0 mm
14:00 -11.6 °C -18.7 °C 34361.1 hPa Calm     41 % 0 mm
14:15 -11.7 °C -19.1 °C 34361.1 hPa Calm     39 % 0 mm
14:30 -11.6 °C -18.7 °C 34361.1 hPa Calm     41 % 0 mm
14:45 -11.6 °C -18.3 °C 34361.1 hPa Calm     43 % 0 mm
15:00 -11.3 °C -18.4 °C 34361.1 hPa Calm     41 % 0 mm
15:15 -11.2 °C -18.9 °C 34361.1 hPa Calm     38 % 0 mm
15:30 -11.2 °C -18.3 °C 34361.1 hPa Calm     41 % 0 mm
15:45 -11 °C -18.8 °C 34361.1 hPa Calm     38 % 0 mm
16:00 -10.9 °C -18.7 °C 34347.6 hPa Calm     38 % 0 mm
16:15 -11 °C -18.5 °C 34347.6 hPa Calm     39 % 0 mm
16:30 -11 °C -19.4 °C 34347.6 hPa Calm     35 % 0 mm
16:45 -11.1 °C -18.4 °C 34347.6 hPa Calm     40 % 0 mm
17:00 -10.9 °C -18.9 °C 34347.6 hPa Calm     37 % 0 mm
17:15 -11.2 °C -19.7 °C 34337.4 hPa Calm     34 % 0 mm
17:30 -11.2 °C -19.1 °C 34347.6 hPa Calm     37 % 0 mm
17:45 -10.9 °C -18.8 °C 34337.4 hPa Calm     37 % 0 mm
18:00 -10.9 °C -18.8 °C 34337.4 hPa Calm     37 % 0 mm
18:15 -11 °C -19.6 °C 34327.3 hPa Calm     34 % 0 mm
18:30 -11.1 °C -19.4 °C 34327.3 hPa Calm     35 % 0 mm
18:45 -11.1 °C -19.7 °C 34313.7 hPa Calm     34 % 0 mm
19:00 -11 °C -19.2 °C 34313.7 hPa Calm     36 % 0 mm
19:15 -11 °C -19.6 °C 34313.7 hPa Calm     34 % 0 mm
19:30 -11.1 °C -19.7 °C 34313.7 hPa Calm     34 % 0 mm
19:45 -11.1 °C -19.1 °C 34303.6 hPa Calm     37 % 0 mm
20:00 -11.2 °C -18.9 °C 34313.7 hPa Calm     38 % 0 mm
20:15 -11.4 °C -18.7 °C 34303.6 hPa Calm     40 % 0 mm
20:30 -11.6 °C -18.7 °C 34303.6 hPa Calm     41 % 0 mm
20:45 -11.7 °C -18.3 °C 34303.6 hPa Calm     44 % 0 mm
21:00 -12 °C -18.7 °C 34303.6 hPa Calm     43 % 0 mm
21:30 -12.3 °C -18.3 °C 34303.6 hPa Calm     47 % 0 mm
21:45 -12.4 °C -18.1 °C 34303.6 hPa Calm     49 % 0 mm
22:00 -12.7 °C -18 °C 34303.6 hPa Calm     51 % 0 mm
22:15 -12.9 °C -17.9 °C 34303.6 hPa Calm     53 % 0 mm
22:30 -13.3 °C -17.5 °C 34293.4 hPa Calm     59 % 0 mm
22:45 -13.9 °C -17.6 °C 34293.4 hPa Calm     63 % 0 mm
23:00 -14.4 °C -17.7 °C 34303.6 hPa Calm     66 % 0 mm
23:15 -14.8 °C -17.7 °C 34303.6 hPa Calm     69 % 0 mm
23:30 -15.1 °C -17.7 °C 34303.6 hPa Calm     72 % 0 mm
23:45 -15.3 °C -17.9 °C 34303.6 hPa Calm     72 % 0 mm
Esan sääasema
Terveisin Weather Underground - 2.75 mb

Alkuperäinen skripti  Jim McMurry - jmcmurry@mwt.net Sovitettu myös templatelle  Wim van der Kuil - Leuven-Template.eu

Laitteet joita käytämme:

Sääasema
Davis VP2

Sääasemaohjelma
Cumulus

Sääaseman tietokone
Asus EeePC

Palveluntarjoaja
Suncomet

Davis VP2

Cumulus

Asus EeePC

Suncomet